Mayfield, Arkansas
Current Conditions -  °F | °C
As of 5:53 AM on Sunday 25 Jan 2015 (Local Time) from KFYV Reporting Station
Light Rain Light Rain  
Wind Chill: 38°   Ceiling: 5000
Heat Index: 44°   Visibility: 10mi
Dew Point: 39°   Wind: 12mph
Humidity: 82%   Direction: 240°WSW
Pressure: 29.76"   Gusts: NA
Location:  35.9902°N, 94.083°W
Report Text: KFYV 251153Z 24010KT 10SM -RA BKN050 OVC060 07/04 A2976 RMK AO2 SLP076 P0003 60005 70005 T00670039 10106 20067 56011
Loading
Personal Weather Stations






























Interactive Weather Map New forecast layout! Learn more

10-Day Weather Forecast

Advertisements
Track Severe Weather on mobile